sensor_id;sensor_type;location;lat;lon;timestamp;pressure;altitude;pressure_sealevel;temperature;humidity
75942;BME280;64622;46.220;19.878;2023-02-13T00:01:56;102751.97;;;-4.46;100.00
75942;BME280;64622;46.220;19.878;2023-02-13T00:04:22;102755.44;;;-4.39;100.00
75942;BME280;64622;46.220;19.878;2023-02-13T00:06:49;102754.53;;;-4.32;100.00
75942;BME280;64622;46.220;19.878;2023-02-13T00:09:16;102758.91;;;-4.36;100.00
75942;BME280;64622;46.220;19.878;2023-02-13T00:11:43;102757.16;;;-4.26;100.00
75942;BME280;64622;46.220;19.878;2023-02-13T00:14:09;102752.88;;;-4.43;100.00
75942;BME280;64622;46.220;19.878;2023-02-13T00:16:35;102766.78;;;-4.40;100.00
75942;BME280;64622;46.220;19.878;2023-02-13T00:19:02;102749.38;;;-4.46;100.00
75942;BME280;64622;46.220;19.878;2023-02-13T00:21:29;102749.34;;;-4.40;100.00
75942;BME280;64622;46.220;19.878;2023-02-13T00:23:55;102747.63;;;-4.45;100.00
75942;BME280;64622;46.220;19.878;2023-02-13T00:26:22;102743.31;;;-4.53;100.00
75942;BME280;64622;46.220;19.878;2023-02-13T00:28:49;102742.44;;;-4.57;100.00
75942;BME280;64622;46.220;19.878;2023-02-13T00:31:19;102737.22;;;-4.51;100.00
75942;BME280;64622;46.220;19.878;2023-02-13T00:33:47;102746.75;;;-4.44;100.00
75942;BME280;64622;46.220;19.878;2023-02-13T00:36:18;102732.81;;;-4.38;100.00
75942;BME280;64622;46.220;19.878;2023-02-13T00:38:46;102733.69;;;-4.41;100.00
75942;BME280;64622;46.220;19.878;2023-02-13T00:41:14;102729.31;;;-4.37;100.00
75942;BME280;64622;46.220;19.878;2023-02-13T00:43:43;102745.00;;;-4.36;100.00
75942;BME280;64622;46.220;19.878;2023-02-13T00:46:10;102756.34;;;-4.40;100.00
75942;BME280;64622;46.220;19.878;2023-02-13T00:48:37;102748.53;;;-4.46;100.00
75942;BME280;64622;46.220;19.878;2023-02-13T00:51:06;102747.66;;;-4.53;100.00
75942;BME280;64622;46.220;19.878;2023-02-13T00:53:34;102745.06;;;-4.56;100.00
75942;BME280;64622;46.220;19.878;2023-02-13T00:56:02;102744.19;;;-4.50;100.00
75942;BME280;64622;46.220;19.878;2023-02-13T00:58:29;102739.81;;;-4.57;100.00
75942;BME280;64622;46.220;19.878;2023-02-13T01:00:56;102751.13;;;-4.49;100.00
75942;BME280;64622;46.220;19.878;2023-02-13T01:03:24;102754.63;;;-4.48;100.00
75942;BME280;64622;46.220;19.878;2023-02-13T01:05:51;102753.75;;;-4.46;100.00
75942;BME280;64622;46.220;19.878;2023-02-13T01:08:19;102751.13;;;-4.51;100.00
75942;BME280;64622;46.220;19.878;2023-02-13T01:10:47;102747.66;;;-4.56;100.00
75942;BME280;64622;46.220;19.878;2023-02-13T01:13:16;102750.31;;;-4.68;100.00
75942;BME280;64622;46.220;19.878;2023-02-13T01:15:47;102748.59;;;-4.75;100.00
75942;BME280;64622;46.220;19.878;2023-02-13T01:18:15;102755.53;;;-4.69;100.00
75942;BME280;64622;46.220;19.878;2023-02-13T01:20:43;102758.19;;;-4.82;100.00
75942;BME280;64622;46.220;19.878;2023-02-13T01:23:10;102761.69;;;-4.94;100.00
75942;BME280;64622;46.220;19.878;2023-02-13T01:25:41;102753.00;;;-5.07;100.00
75942;BME280;64622;46.220;19.878;2023-02-13T01:28:08;102759.09;;;-5.09;100.00
75942;BME280;64622;46.220;19.878;2023-02-13T01:30:34;102762.56;;;-4.98;100.00
75942;BME280;64622;46.220;19.878;2023-02-13T01:33:01;102739.94;;;-4.97;100.00
75942;BME280;64622;46.220;19.878;2023-02-13T01:35:27;102761.66;;;-4.79;100.00
75942;BME280;64622;46.220;19.878;2023-02-13T01:37:54;102752.97;;;-4.73;100.00
75942;BME280;64622;46.220;19.878;2023-02-13T01:40:21;102738.13;;;-4.72;100.00
75942;BME280;64622;46.220;19.878;2023-02-13T01:42:48;102739.00;;;-4.63;100.00
75942;BME280;64622;46.220;19.878;2023-02-13T01:45:26;102759.00;;;-4.57;100.00
75942;BME280;64622;46.220;19.878;2023-02-13T01:47:59;102746.81;;;-4.59;100.00
75942;BME280;64622;46.220;19.878;2023-02-13T01:50:35;102757.25;;;-4.53;100.00
75942;BME280;64622;46.220;19.878;2023-02-13T01:53:10;102756.41;;;-4.75;100.00
75942;BME280;64622;46.220;19.878;2023-02-13T01:55:47;102773.88;;;-4.81;100.00
75942;BME280;64622;46.220;19.878;2023-02-13T01:58:18;102750.38;;;-4.92;100.00
75942;BME280;64622;46.220;19.878;2023-02-13T02:00:46;102758.22;;;-4.97;100.00
75942;BME280;64622;46.220;19.878;2023-02-13T02:03:28;102757.31;;;-4.89;100.00
75942;BME280;64622;46.220;19.878;2023-02-13T02:06:00;102765.16;;;-4.82;100.00
75942;BME280;64622;46.220;19.878;2023-02-13T02:08:28;102759.03;;;-4.82;100.00
75942;BME280;64622;46.220;19.878;2023-02-13T02:10:57;102751.22;;;-4.87;100.00
75942;BME280;64622;46.220;19.878;2023-02-13T02:13:28;102757.31;;;-4.83;100.00
75942;BME280;64622;46.220;19.878;2023-02-13T02:16:01;102752.94;;;-4.71;100.00
75942;BME280;64622;46.220;19.878;2023-02-13T02:18:28;102758.13;;;-4.65;100.00
75942;BME280;64622;46.220;19.878;2023-02-13T02:29:30;102751.09;;;-4.43;100.00
75942;BME280;64622;46.220;19.878;2023-02-13T02:35:00;102749.47;;;-4.83;100.00
75942;BME280;64622;46.220;19.878;2023-02-13T02:40:27;102752.09;;;-4.91;100.00
75942;BME280;64622;46.220;19.878;2023-02-13T02:45:51;102755.47;;;-4.45;100.00
75942;BME280;64622;46.220;19.878;2023-02-13T02:48:43;102755.44;;;-4.41;100.00
75942;BME280;64622;46.220;19.878;2023-02-13T02:57:29;102759.75;;;-4.23;100.00
75942;BME280;64622;46.220;19.878;2023-02-13T03:00:19;102758.03;;;-4.32;100.00
75942;BME280;64622;46.220;19.878;2023-02-13T03:03:17;102752.81;;;-4.30;100.00
75942;BME280;64622;46.220;19.878;2023-02-13T03:06:11;102755.37;;;-4.26;100.00
75942;BME280;64622;46.220;19.878;2023-02-13T03:08:42;102756.22;;;-4.15;100.00
75942;BME280;64622;46.220;19.878;2023-02-13T03:11:27;102754.41;;;-3.97;100.00
75942;BME280;64622;46.220;19.878;2023-02-13T03:14:16;102730.84;;;-3.97;100.00
75942;BME280;64622;46.220;19.878;2023-02-13T03:16:45;102724.75;;;-4.00;100.00
75942;BME280;64622;46.220;19.878;2023-02-13T03:19:41;102736.97;;;-3.98;100.00
75942;BME280;64622;46.220;19.878;2023-02-13T03:31:47;102750.94;;;-4.03;100.00
75942;BME280;64622;46.220;19.878;2023-02-13T03:34:23;102755.25;;;-3.91;100.00
75942;BME280;64622;46.220;19.878;2023-02-13T03:40:09;102750.84;;;-3.87;100.00
75942;BME280;64622;46.220;19.878;2023-02-13T03:42:46;102751.69;;;-3.81;100.00
75942;BME280;64622;46.220;19.878;2023-02-13T03:45:18;102749.91;;;-3.76;100.00
75942;BME280;64622;46.220;19.878;2023-02-13T03:48:06;102746.41;;;-3.77;100.00
75942;BME280;64622;46.220;19.878;2023-02-13T03:50:56;102746.38;;;-3.71;100.00
75942;BME280;64622;46.220;19.878;2023-02-13T03:53:26;102758.56;;;-3.65;100.00
75942;BME280;64622;46.220;19.878;2023-02-13T03:55:56;102736.75;;;-3.66;100.00
75942;BME280;64622;46.220;19.878;2023-02-13T03:58:46;102752.53;;;-3.81;100.00
75942;BME280;64622;46.220;19.878;2023-02-13T04:01:35;102745.75;;;-4.08;100.00
75942;BME280;64622;46.220;19.878;2023-02-13T04:07:18;102743.22;;;-4.34;100.00
75942;BME280;64622;46.220;19.878;2023-02-13T04:10:11;102741.50;;;-4.40;100.00
75942;BME280;64622;46.220;19.878;2023-02-13T04:15:22;102745.91;;;-4.47;100.00
75942;BME280;64622;46.220;19.878;2023-02-13T04:18:06;102751.13;;;-4.46;100.00
75942;BME280;64622;46.220;19.878;2023-02-13T04:20:34;102742.44;;;-4.53;100.00
75942;BME280;64622;46.220;19.878;2023-02-13T04:23:06;102732.88;;;-4.58;100.00
75942;BME280;64622;46.220;19.878;2023-02-13T04:25:35;102754.63;;;-4.55;100.00
75942;BME280;64622;46.220;19.878;2023-02-13T04:28:03;102740.72;;;-4.64;100.00
75942;BME280;64622;46.220;19.878;2023-02-13T04:30:31;102741.63;;;-4.71;100.00
75942;BME280;64622;46.220;19.878;2023-02-13T04:32:58;102739.91;;;-4.73;100.00
75942;BME280;64622;46.220;19.878;2023-02-13T04:35:25;102746.84;;;-4.72;100.00
75942;BME280;64622;46.220;19.878;2023-02-13T04:37:51;102752.94;;;-4.77;100.00
75942;BME280;64622;46.220;19.878;2023-02-13T04:40:18;102750.38;;;-4.88;100.00
75942;BME280;64622;46.220;19.878;2023-02-13T04:42:48;102743.38;;;-4.90;100.00
75942;BME280;64622;46.220;19.878;2023-02-13T04:45:15;102754.72;;;-4.87;100.00
75942;BME280;64622;46.220;19.878;2023-02-13T04:47:42;102758.22;;;-4.96;100.00
75942;BME280;64622;46.220;19.878;2023-02-13T04:50:15;102770.38;;;-5.00;100.00
75942;BME280;64622;46.220;19.878;2023-02-13T04:52:41;102763.44;;;-5.03;100.00
75942;BME280;64622;46.220;19.878;2023-02-13T04:55:08;102746.94;;;-5.08;100.00
75942;BME280;64622;46.220;19.878;2023-02-13T04:57:35;102753.00;;;-5.03;100.00
75942;BME280;64622;46.220;19.878;2023-02-13T05:00:05;102754.75;;;-5.10;100.00
75942;BME280;64622;46.220;19.878;2023-02-13T05:02:32;102746.91;;;-5.12;100.00
75942;BME280;64622;46.220;19.878;2023-02-13T05:04:58;102760.81;;;-4.97;100.00
75942;BME280;64622;46.220;19.878;2023-02-13T05:07:25;102763.41;;;-4.95;100.00
75942;BME280;64622;46.220;19.878;2023-02-13T05:09:51;102764.28;;;-4.96;100.00
75942;BME280;64622;46.220;19.878;2023-02-13T05:12:18;102770.41;;;-4.97;100.00
75942;BME280;64622;46.220;19.878;2023-02-13T05:14:45;102763.44;;;-5.05;100.00
75942;BME280;64622;46.220;19.878;2023-02-13T05:17:11;102761.72;;;-5.19;100.00
75942;BME280;64622;46.220;19.878;2023-02-13T05:19:38;102760.88;;;-5.32;100.00
75942;BME280;64622;46.220;19.878;2023-02-13T05:22:05;102761.72;;;-5.51;100.00
75942;BME280;64622;46.220;19.878;2023-02-13T05:24:50;102766.94;;;-5.57;100.00
75942;BME280;64622;46.220;19.878;2023-02-13T05:27:16;102755.56;;;-5.76;100.00
75942;BME280;64622;46.220;19.878;2023-02-13T05:29:42;102757.34;;;-5.85;100.00
75942;BME280;64622;46.220;19.878;2023-02-13T05:32:09;102762.53;;;-5.79;100.00
75942;BME280;64622;46.220;19.878;2023-02-13T05:34:36;102756.50;;;-5.81;100.00
75942;BME280;64622;46.220;19.878;2023-02-13T05:37:02;102752.13;;;-5.80;100.00
75942;BME280;64622;46.220;19.878;2023-02-13T05:39:29;102770.41;;;-5.53;100.00
75942;BME280;64622;46.220;19.878;2023-02-13T05:41:56;102770.41;;;-5.52;100.00
75942;BME280;64622;46.220;19.878;2023-02-13T05:44:22;102774.72;;;-5.56;100.00
75942;BME280;64622;46.220;19.878;2023-02-13T05:46:52;102784.31;;;-5.46;100.00
75942;BME280;64622;46.220;19.878;2023-02-13T05:49:19;102787.81;;;-5.45;100.00
75942;BME280;64622;46.220;19.878;2023-02-13T05:51:45;102781.72;;;-5.47;100.00
75942;BME280;64622;46.220;19.878;2023-02-13T05:54:13;102766.06;;;-5.54;100.00
75942;BME280;64622;46.220;19.878;2023-02-13T05:56:40;102766.94;;;-5.57;100.00
75942;BME280;64622;46.220;19.878;2023-02-13T05:59:07;102786.06;;;-5.47;100.00
75942;BME280;64622;46.220;19.878;2023-02-13T06:01:34;102770.44;;;-5.44;100.00
75942;BME280;64622;46.220;19.878;2023-02-13T06:04:01;102763.47;;;-5.47;100.00
75942;BME280;64622;46.220;19.878;2023-02-13T06:06:27;102766.06;;;-5.50;100.00
75942;BME280;64622;46.220;19.878;2023-02-13T06:08:54;102766.91;;;-5.56;100.00
75942;BME280;64622;46.220;19.878;2023-02-13T06:11:21;102771.25;;;-5.52;100.00
75942;BME280;64622;46.220;19.878;2023-02-13T06:13:47;102770.44;;;-5.44;100.00
75942;BME280;64622;46.220;19.878;2023-02-13T06:16:13;102760.88;;;-5.39;100.00
75942;BME280;64622;46.220;19.878;2023-02-13T06:18:40;102771.28;;;-5.18;100.00
75942;BME280;64622;46.220;19.878;2023-02-13T06:21:11;102771.28;;;-5.11;100.00
75942;BME280;64622;46.220;19.878;2023-02-13T06:23:37;102763.41;;;-4.86;100.00
75942;BME280;64622;46.220;19.878;2023-02-13T06:26:06;102757.25;;;-4.56;100.00
75942;BME280;64622;46.220;19.878;2023-02-13T06:28:33;102766.69;;;-4.18;100.00
75942;BME280;64622;46.220;19.878;2023-02-13T06:31:00;102761.34;;;-3.93;100.00
75942;BME280;64622;46.220;19.878;2023-02-13T06:33:27;102774.25;;;-3.67;100.00
75942;BME280;64622;46.220;19.878;2023-02-13T06:35:53;102754.16;;;-3.63;100.00
75942;BME280;64622;46.220;19.878;2023-02-13T06:38:20;102755.87;;;-3.58;100.00
75942;BME280;64622;46.220;19.878;2023-02-13T06:40:48;102752.37;;;-3.55;100.00
75942;BME280;64622;46.220;19.878;2023-02-13T06:43:15;102757.31;;;-3.19;100.00
75942;BME280;64622;46.220;19.878;2023-02-13T06:45:43;102770.97;;;-2.84;100.00
75942;BME280;64622;46.220;19.878;2023-02-13T06:48:12;102771.50;;;-2.52;100.00
75942;BME280;64622;46.220;19.878;2023-02-13T06:50:40;102773.69;;;-2.16;98.63
75942;BME280;64622;46.220;19.878;2023-02-13T06:53:07;102772.28;;;-1.75;97.12
75942;BME280;64622;46.220;19.878;2023-02-13T06:55:35;102780.38;;;-1.31;96.12
75942;BME280;64622;46.220;19.878;2023-02-13T06:58:01;102786.84;;;-0.98;94.59
75942;BME280;64622;46.220;19.878;2023-02-13T07:00:28;102781.06;;;-0.70;98.26
75942;BME280;64622;46.220;19.878;2023-02-13T07:03:00;102772.78;;;-0.49;99.19
75942;BME280;64622;46.220;19.878;2023-02-13T07:05:27;102781.19;;;-0.30;100.00
75942;BME280;64622;46.220;19.878;2023-02-13T07:07:55;102771.38;;;-0.24;100.00
75942;BME280;64622;46.220;19.878;2023-02-13T07:10:21;102769.19;;;-0.02;100.00
75942;BME280;64622;46.220;19.878;2023-02-13T07:12:48;102781.28;;;0.06;100.00
75942;BME280;64622;46.220;19.878;2023-02-13T07:15:15;102770.84;;;0.41;97.76
75942;BME280;64622;46.220;19.878;2023-02-13T07:17:42;102779.75;;;0.74;100.00
75942;BME280;64622;46.220;19.878;2023-02-13T07:20:09;102768.81;;;0.89;100.00
75942;BME280;64622;46.220;19.878;2023-02-13T07:22:36;102771.41;;;0.92;97.23
75942;BME280;64622;46.220;19.878;2023-02-13T07:25:03;102781.81;;;1.30;100.00
75942;BME280;64622;46.220;19.878;2023-02-13T07:27:29;102780.13;;;1.61;100.00
75942;BME280;64622;46.220;19.878;2023-02-13T07:29:56;102769.88;;;1.81;100.00
75942;BME280;64622;46.220;19.878;2023-02-13T07:32:24;102771.44;;;2.17;100.00
75942;BME280;64622;46.220;19.878;2023-02-13T07:34:51;102770.06;;;2.33;100.00
75942;BME280;64622;46.220;19.878;2023-02-13T07:37:18;102780.88;;;2.53;97.44
75942;BME280;64622;46.220;19.878;2023-02-13T07:39:44;102769.88;;;2.39;88.87
75942;BME280;64622;46.220;19.878;2023-02-13T07:42:11;102777.06;;;2.34;87.02
75942;BME280;64622;46.220;19.878;2023-02-13T07:44:38;102770.41;;;2.76;86.30
75942;BME280;64622;46.220;19.878;2023-02-13T07:47:04;102779.47;;;2.41;86.19
75942;BME280;64622;46.220;19.878;2023-02-13T07:49:31;102771.09;;;2.27;87.67
75942;BME280;64622;46.220;19.878;2023-02-13T07:51:59;102779.25;;;3.02;88.89
75942;BME280;64622;46.220;19.878;2023-02-13T07:54:25;102774.72;;;3.06;90.33
75942;BME280;64622;46.220;19.878;2023-02-13T07:56:52;102774.53;;;3.36;90.83
75942;BME280;64622;46.220;19.878;2023-02-13T07:59:19;102780.91;;;2.79;84.26
75942;BME280;64622;46.220;19.878;2023-02-13T08:01:45;102776.50;;;2.79;84.47
75942;BME280;64622;46.220;19.878;2023-02-13T08:04:12;102775.56;;;2.54;85.58
75942;BME280;64622;46.220;19.878;2023-02-13T08:06:39;102776.72;;;2.99;84.59
75942;BME280;64622;46.220;19.878;2023-02-13T08:09:06;102768.91;;;3.21;82.73
75942;BME280;64622;46.220;19.878;2023-02-13T08:11:53;102770.09;;;2.86;84.56
75942;BME280;64622;46.220;19.878;2023-02-13T08:14:21;102769.78;;;3.70;81.71
75942;BME280;64622;46.220;19.878;2023-02-13T08:16:48;102772.22;;;3.76;81.51
75942;BME280;64622;46.220;19.878;2023-02-13T08:19:15;102767.31;;;3.41;82.42
75942;BME280;64622;46.220;19.878;2023-02-13T08:21:42;102768.06;;;3.45;81.95
75942;BME280;64622;46.220;19.878;2023-02-13T08:24:09;102754.00;;;3.67;81.83
75942;BME280;64622;46.220;19.878;2023-02-13T08:26:37;102760.12;;;3.69;80.33
75942;BME280;64622;46.220;19.878;2023-02-13T08:29:05;102763.53;;;3.73;79.53
75942;BME280;64622;46.220;19.878;2023-02-13T08:31:32;102764.78;;;3.86;77.59
75942;BME280;64622;46.220;19.878;2023-02-13T08:33:58;102755.25;;;4.49;76.28
75942;BME280;64622;46.220;19.878;2023-02-13T08:36:25;102755.19;;;4.29;76.32
75942;BME280;64622;46.220;19.878;2023-02-13T08:38:52;102760.06;;;4.61;74.58
75942;BME280;64622;46.220;19.878;2023-02-13T08:41:19;102760.44;;;4.08;76.57
75942;BME280;64622;46.220;19.878;2023-02-13T08:43:49;102760.53;;;4.28;75.45
75942;BME280;64622;46.220;19.878;2023-02-13T08:46:16;102762.88;;;4.78;75.13
75942;BME280;64622;46.220;19.878;2023-02-13T08:48:44;102763.81;;;4.77;74.41
75942;BME280;64622;46.220;19.878;2023-02-13T08:51:12;102773.53;;;4.98;73.25
75942;BME280;64622;46.220;19.878;2023-02-13T08:53:40;102765.53;;;5.00;73.28
75942;BME280;64622;46.220;19.878;2023-02-13T08:56:08;102769.16;;;6.36;69.81
75942;BME280;64622;46.220;19.878;2023-02-13T08:58:35;102764.41;;;6.06;69.41
75942;BME280;64622;46.220;19.878;2023-02-13T09:01:08;102772.22;;;6.08;70.02
75942;BME280;64622;46.220;19.878;2023-02-13T09:03:37;102767.44;;;5.58;71.89
75942;BME280;64622;46.220;19.878;2023-02-13T09:06:03;102772.87;;;5.75;70.78
75942;BME280;64622;46.220;19.878;2023-02-13T09:08:30;102771.03;;;6.16;68.75
75942;BME280;64622;46.220;19.878;2023-02-13T09:10:59;102777.78;;;6.22;70.79
75942;BME280;64622;46.220;19.878;2023-02-13T09:13:30;102778.72;;;6.40;68.25
75942;BME280;64622;46.220;19.878;2023-02-13T09:16:00;102776.00;;;6.77;66.61
75942;BME280;64622;46.220;19.878;2023-02-13T09:18:27;102778.84;;;6.00;69.28
75942;BME280;64622;46.220;19.878;2023-02-13T09:20:58;102766.06;;;6.27;69.71
75942;BME280;64622;46.220;19.878;2023-02-13T09:23:26;102772.87;;;6.32;68.18
75942;BME280;64622;46.220;19.878;2023-02-13T09:25:52;102777.94;;;6.92;67.36
75942;BME280;64622;46.220;19.878;2023-02-13T09:28:19;102777.50;;;6.28;67.93
75942;BME280;64622;46.220;19.878;2023-02-13T09:30:46;102781.50;;;6.37;68.15
75942;BME280;64622;46.220;19.878;2023-02-13T09:33:14;102780.62;;;7.09;65.66
75942;BME280;64622;46.220;19.878;2023-02-13T09:35:40;102787.56;;;6.94;65.51
75942;BME280;64622;46.220;19.878;2023-02-13T09:38:09;102781.28;;;7.31;64.86
75942;BME280;64622;46.220;19.878;2023-02-13T09:40:55;102780.47;;;7.12;64.95
75942;BME280;64622;46.220;19.878;2023-02-13T09:45:54;102785.50;;;6.82;64.64
75942;BME280;64622;46.220;19.878;2023-02-13T09:48:28;102774.69;;;7.21;63.09
75942;BME280;64622;46.220;19.878;2023-02-13T09:50:57;102783.44;;;7.06;63.16
75942;BME280;64622;46.220;19.878;2023-02-13T09:53:26;102785.31;;;7.04;63.75
75942;BME280;64622;46.220;19.878;2023-02-13T09:56:03;102775.69;;;8.02;60.59
75942;BME280;64622;46.220;19.878;2023-02-13T10:00:59;102769.25;;;8.70;59.11
75942;BME280;64622;46.220;19.878;2023-02-13T10:03:51;102770.69;;;9.36;55.46
75942;BME280;64622;46.220;19.878;2023-02-13T10:09:00;102766.28;;;9.35;54.70
75942;BME280;64622;46.220;19.878;2023-02-13T10:14:37;102763.94;;;9.15;54.11
75942;BME280;64622;46.220;19.878;2023-02-13T10:17:15;102747.06;;;9.58;52.23
75942;BME280;64622;46.220;19.878;2023-02-13T10:19:55;102750.34;;;9.04;52.73
75942;BME280;64622;46.220;19.878;2023-02-13T10:22:34;102763.22;;;8.35;55.29
75942;BME280;64622;46.220;19.878;2023-02-13T10:25:15;102759.78;;;8.33;54.39
75942;BME280;64622;46.220;19.878;2023-02-13T10:27:46;102742.78;;;8.96;53.46
75942;BME280;64622;46.220;19.878;2023-02-13T10:30:21;102733.09;;;10.10;51.38
75942;BME280;64622;46.220;19.878;2023-02-13T10:33:03;102740.00;;;8.53;53.69
75942;BME280;64622;46.220;19.878;2023-02-13T10:38:41;102735.50;;;8.53;54.29
75942;BME280;64622;46.220;19.878;2023-02-13T10:55:12;102701.13;;;9.93;50.97
75942;BME280;64622;46.220;19.878;2023-02-13T11:00:33;102705.19;;;8.23;56.16
75942;BME280;64622;46.220;19.878;2023-02-13T11:03:01;102704.53;;;8.96;54.69
75942;BME280;64622;46.220;19.878;2023-02-13T11:05:36;102701.66;;;9.14;55.01
75942;BME280;64622;46.220;19.878;2023-02-13T11:08:19;102704.97;;;10.17;52.52
75942;BME280;64622;46.220;19.878;2023-02-13T11:10:46;102696.75;;;10.20;51.48
75942;BME280;64622;46.220;19.878;2023-02-13T11:13:19;102696.62;;;9.38;53.26
75942;BME280;64622;46.220;19.878;2023-02-13T11:16:06;102690.47;;;9.65;53.03
75942;BME280;64622;46.220;19.878;2023-02-13T11:18:37;102683.13;;;8.82;54.95
75942;BME280;64622;46.220;19.878;2023-02-13T11:23:37;102682.69;;;8.74;55.25
75942;BME280;64622;46.220;19.878;2023-02-13T11:26:10;102674.34;;;9.23;54.34
75942;BME280;64622;46.220;19.878;2023-02-13T11:28:52;102675.34;;;9.78;52.79
75942;BME280;64622;46.220;19.878;2023-02-13T11:31:31;102666.09;;;9.70;53.84
75942;BME280;64622;46.220;19.878;2023-02-13T11:34:21;102671.84;;;9.92;52.78
75942;BME280;64622;46.220;19.878;2023-02-13T11:37:15;102662.09;;;9.63;54.76
75942;BME280;64622;46.220;19.878;2023-02-13T11:39:44;102661.22;;;9.62;53.60
75942;BME280;64622;46.220;19.878;2023-02-13T11:42:16;102661.41;;;9.73;54.69
75942;BME280;64622;46.220;19.878;2023-02-13T11:44:50;102661.84;;;8.80;56.30
75942;BME280;64622;46.220;19.878;2023-02-13T11:47:31;102659.97;;;9.54;55.04
75942;BME280;64622;46.220;19.878;2023-02-13T11:50:00;102663.78;;;9.50;55.66
75942;BME280;64622;46.220;19.878;2023-02-13T11:52:29;102648.50;;;9.24;56.26
75942;BME280;64622;46.220;19.878;2023-02-13T11:54:59;102637.84;;;9.52;55.54
75942;BME280;64622;46.220;19.878;2023-02-13T11:57:34;102635.06;;;9.53;55.14
75942;BME280;64622;46.220;19.878;2023-02-13T12:00:26;102639.91;;;10.43;53.57
75942;BME280;64622;46.220;19.878;2023-02-13T12:02:53;102640.66;;;9.21;55.88
75942;BME280;64622;46.220;19.878;2023-02-13T12:05:25;102629.34;;;9.59;55.33
75942;BME280;64622;46.220;19.878;2023-02-13T12:07:54;102640.88;;;9.88;55.01
75942;BME280;64622;46.220;19.878;2023-02-13T12:10:28;102633.13;;;9.97;55.33
75942;BME280;64622;46.220;19.878;2023-02-13T12:15:29;102625.50;;;10.32;54.28
75942;BME280;64622;46.220;19.878;2023-02-13T12:21:25;102614.84;;;10.83;53.11
75942;BME280;64622;46.220;19.878;2023-02-13T12:26:43;102612.69;;;9.82;56.01
75942;BME280;64622;46.220;19.878;2023-02-13T12:32:18;102610.88;;;9.97;55.86
75942;BME280;64622;46.220;19.878;2023-02-13T12:37:49;102608.38;;;10.34;55.04
75942;BME280;64622;46.220;19.878;2023-02-13T12:51:44;102593.84;;;10.90;52.78
75942;BME280;64622;46.220;19.878;2023-02-13T12:57:20;102593.75;;;8.87;58.94
75942;BME280;64622;46.220;19.878;2023-02-13T13:05:37;102580.84;;;10.06;55.26
75942;BME280;64622;46.220;19.878;2023-02-13T13:11:11;102569.22;;;10.07;55.70
75942;BME280;64622;46.220;19.878;2023-02-13T13:19:12;102562.31;;;10.17;55.40
75942;BME280;64622;46.220;19.878;2023-02-13T13:27:23;102557.34;;;9.42;57.38
75942;BME280;64622;46.220;19.878;2023-02-13T13:30:02;102556.47;;;9.56;57.31
75942;BME280;64622;46.220;19.878;2023-02-13T13:32:31;102543.84;;;10.39;55.10
75942;BME280;64622;46.220;19.878;2023-02-13T13:34:59;102553.81;;;9.96;54.42
75942;BME280;64622;46.220;19.878;2023-02-13T13:40:55;102547.03;;;10.05;54.41
75942;BME280;64622;46.220;19.878;2023-02-13T13:43:38;102541.19;;;10.12;54.05
75942;BME280;64622;46.220;19.878;2023-02-13T13:46:16;102539.16;;;10.16;53.73
75942;BME280;64622;46.220;19.878;2023-02-13T13:51:34;102526.31;;;10.21;53.11
75942;BME280;64622;46.220;19.878;2023-02-13T14:05:02;102522.19;;;10.03;54.40
75942;BME280;64622;46.220;19.878;2023-02-13T14:07:35;102517.03;;;10.00;54.64
75942;BME280;64622;46.220;19.878;2023-02-13T14:10:18;102520.00;;;9.69;55.51
75942;BME280;64622;46.220;19.878;2023-02-13T14:20:42;102513.88;;;11.34;48.53
75942;BME280;64622;46.220;19.878;2023-02-13T14:25:45;102506.53;;;9.97;50.88
75942;BME280;64622;46.220;19.878;2023-02-13T14:30:49;102497.31;;;10.91;48.53
75942;BME280;64622;46.220;19.878;2023-02-13T14:33:26;102498.56;;;10.48;49.06
75942;BME280;64622;46.220;19.878;2023-02-13T14:36:07;102497.53;;;9.71;50.57
75942;BME280;64622;46.220;19.878;2023-02-13T14:38:42;102500.00;;;10.01;49.47
75942;BME280;64622;46.220;19.878;2023-02-13T14:46:47;102506.38;;;9.59;49.23
75942;BME280;64622;46.220;19.878;2023-02-13T14:49:35;102504.19;;;9.78;49.29
75942;BME280;64622;46.220;19.878;2023-02-13T14:52:12;102503.12;;;9.54;50.58
75942;BME280;64622;46.220;19.878;2023-02-13T14:54:45;102503.81;;;9.84;50.31
75942;BME280;64622;46.220;19.878;2023-02-13T14:57:17;102505.47;;;9.99;50.02
75942;BME280;64622;46.220;19.878;2023-02-13T14:59:50;102511.53;;;9.89;50.53
75942;BME280;64622;46.220;19.878;2023-02-13T15:02:32;102507.84;;;10.04;50.51
75942;BME280;64622;46.220;19.878;2023-02-13T15:05:03;102503.53;;;9.75;51.14
75942;BME280;64622;46.220;19.878;2023-02-13T15:07:36;102492.44;;;9.81;51.25
75942;BME280;64622;46.220;19.878;2023-02-13T15:10:28;102505.81;;;9.81;51.29
75942;BME280;64622;46.220;19.878;2023-02-13T15:13:01;102504.91;;;9.68;51.81
75942;BME280;64622;46.220;19.878;2023-02-13T15:15:33;102506.56;;;9.42;51.97
75942;BME280;64622;46.220;19.878;2023-02-13T15:18:29;102507.19;;;9.19;52.00
75942;BME280;64622;46.220;19.878;2023-02-13T15:20:58;102504.91;;;8.99;52.71
75942;BME280;64622;46.220;19.878;2023-02-13T15:23:31;102515.09;;;8.93;53.43
75942;BME280;64622;46.220;19.878;2023-02-13T15:26:02;102512.88;;;8.71;54.00
75942;BME280;64622;46.220;19.878;2023-02-13T15:28:30;102514.22;;;8.64;54.58
75942;BME280;64622;46.220;19.878;2023-02-13T15:31:02;102516.06;;;8.34;55.47
75942;BME280;64622;46.220;19.878;2023-02-13T15:33:43;102519.31;;;8.08;56.73
75942;BME280;64622;46.220;19.878;2023-02-13T15:36:16;102521.34;;;7.73;57.46
75942;BME280;64622;46.220;19.878;2023-02-13T15:38:44;102514.47;;;7.38;58.48